Terminal Aerodrome Forecast
Issued by NWS

Home | Current Version | Previous Version | Text Only | Print | Product List | Glossary On
Versions: 1 2 3 4 5 6 7 8 9 10 11 12 13 14 15 16
097
FTUS43 KGRR 031140
TAFMKG
TAF
KMKG 031140Z 0312/0412 28006KT P6SM SKC
     FM040400 25009KT P6SM OVC025
     FM040600 22008KT P6SM -RA OVC015
     FM040800 27008KT P6SM -RA OVC007=

USA.gov is the U.S. government's official web portal to all federal, state and local government web resources and services.